sensor_id;sensor_type;location;lat;lon;timestamp;temperature;humidity
2867;DHT22;1441;48.886;8.728;2024-03-23T00:54:19;12.10;89.70
2867;DHT22;1441;48.886;8.728;2024-03-23T00:56:45;12.20;89.50
2867;DHT22;1441;48.886;8.728;2024-03-23T00:59:10;12.20;89.40
2867;DHT22;1441;48.886;8.728;2024-03-23T01:01:36;12.20;89.20
2867;DHT22;1441;48.886;8.728;2024-03-23T01:04:02;12.10;89.70
2867;DHT22;1441;48.886;8.728;2024-03-23T01:06:28;12.10;89.70
2867;DHT22;1441;48.886;8.728;2024-03-23T01:08:53;12.00;91.20
2867;DHT22;1441;48.886;8.728;2024-03-23T01:11:19;11.70;91.90
2867;DHT22;1441;48.886;8.728;2024-03-23T01:13:44;11.40;93.00
2867;DHT22;1441;48.886;8.728;2024-03-23T01:16:10;11.20;93.90
2867;DHT22;1441;48.886;8.728;2024-03-23T01:18:36;11.20;93.20
2867;DHT22;1441;48.886;8.728;2024-03-23T01:21:01;11.00;94.50
2867;DHT22;1441;48.886;8.728;2024-03-23T01:23:27;11.00;93.80
2867;DHT22;1441;48.886;8.728;2024-03-23T01:25:56;10.90;94.60
2867;DHT22;1441;48.886;8.728;2024-03-23T01:28:21;10.80;94.50
2867;DHT22;1441;48.886;8.728;2024-03-23T01:30:47;10.80;95.60
2867;DHT22;1441;48.886;8.728;2024-03-23T01:33:13;11.00;94.40
2867;DHT22;1441;48.886;8.728;2024-03-23T01:35:40;11.20;93.40
2867;DHT22;1441;48.886;8.728;2024-03-23T01:38:06;11.30;92.80
2867;DHT22;1441;48.886;8.728;2024-03-23T01:40:32;11.30;92.90
2867;DHT22;1441;48.886;8.728;2024-03-23T01:43:05;11.20;93.40
2867;DHT22;1441;48.886;8.728;2024-03-23T01:45:32;11.20;93.80
2867;DHT22;1441;48.886;8.728;2024-03-23T01:47:58;11.00;94.20
2867;DHT22;1441;48.886;8.728;2024-03-23T01:50:25;11.10;94.20
2867;DHT22;1441;48.886;8.728;2024-03-23T01:52:51;11.10;95.00
2867;DHT22;1441;48.886;8.728;2024-03-23T01:55:16;11.00;95.30
2867;DHT22;1441;48.886;8.728;2024-03-23T01:57:42;10.90;95.80
2867;DHT22;1441;48.886;8.728;2024-03-23T02:00:08;10.80;96.10
2867;DHT22;1441;48.886;8.728;2024-03-23T02:02:40;10.70;96.70
2867;DHT22;1441;48.886;8.728;2024-03-23T02:05:06;10.60;97.00
2867;DHT22;1441;48.886;8.728;2024-03-23T02:07:33;10.40;97.20
2867;DHT22;1441;48.886;8.728;2024-03-23T02:10:00;10.30;97.80
2867;DHT22;1441;48.886;8.728;2024-03-23T02:12:26;10.30;98.10
2867;DHT22;1441;48.886;8.728;2024-03-23T02:14:51;10.30;98.40
2867;DHT22;1441;48.886;8.728;2024-03-23T02:17:17;10.30;98.10
2867;DHT22;1441;48.886;8.728;2024-03-23T02:19:43;10.30;98.50
2867;DHT22;1441;48.886;8.728;2024-03-23T02:22:08;10.30;98.40
2867;DHT22;1441;48.886;8.728;2024-03-23T02:24:36;10.40;98.60
2867;DHT22;1441;48.886;8.728;2024-03-23T02:27:02;10.50;97.70
2867;DHT22;1441;48.886;8.728;2024-03-23T02:29:28;10.50;98.10
2867;DHT22;1441;48.886;8.728;2024-03-23T02:31:53;10.50;98.40
2867;DHT22;1441;48.886;8.728;2024-03-23T02:34:19;10.50;99.10
2867;DHT22;1441;48.886;8.728;2024-03-23T02:36:45;10.70;98.70
2867;DHT22;1441;48.886;8.728;2024-03-23T02:39:10;10.90;98.90
2867;DHT22;1441;48.886;8.728;2024-03-23T02:41:36;11.10;98.30
2867;DHT22;1441;48.886;8.728;2024-03-23T02:44:02;11.20;97.80
2867;DHT22;1441;48.886;8.728;2024-03-23T02:46:27;11.40;97.40
2867;DHT22;1441;48.886;8.728;2024-03-23T02:48:53;11.50;97.00
2867;DHT22;1441;48.886;8.728;2024-03-23T02:51:19;11.60;96.70
2867;DHT22;1441;48.886;8.728;2024-03-23T02:53:44;11.60;96.60
2867;DHT22;1441;48.886;8.728;2024-03-23T02:56:10;11.70;96.40
2867;DHT22;1441;48.886;8.728;2024-03-23T02:58:41;11.80;96.10
2867;DHT22;1441;48.886;8.728;2024-03-23T03:01:06;11.90;95.80
2867;DHT22;1441;48.886;8.728;2024-03-23T03:03:32;11.90;96.10
2867;DHT22;1441;48.886;8.728;2024-03-23T03:05:58;12.00;95.80
2867;DHT22;1441;48.886;8.728;2024-03-23T03:08:23;12.10;95.70
2867;DHT22;1441;48.886;8.728;2024-03-23T03:10:49;12.20;95.60
2867;DHT22;1441;48.886;8.728;2024-03-23T03:13:14;12.20;95.10
2867;DHT22;1441;48.886;8.728;2024-03-23T03:15:43;12.00;95.10
2867;DHT22;1441;48.886;8.728;2024-03-23T03:18:09;11.90;95.90
2867;DHT22;1441;48.886;8.728;2024-03-23T03:20:38;11.90;96.40
2867;DHT22;1441;48.886;8.728;2024-03-23T03:23:05;11.90;96.40
2867;DHT22;1441;48.886;8.728;2024-03-23T03:25:30;12.00;96.30
2867;DHT22;1441;48.886;8.728;2024-03-23T03:27:56;12.00;96.20
2867;DHT22;1441;48.886;8.728;2024-03-23T03:30:21;12.00;96.00
2867;DHT22;1441;48.886;8.728;2024-03-23T03:32:47;12.10;95.90
2867;DHT22;1441;48.886;8.728;2024-03-23T03:35:12;12.00;95.80
2867;DHT22;1441;48.886;8.728;2024-03-23T03:37:38;12.00;95.80
2867;DHT22;1441;48.886;8.728;2024-03-23T03:40:04;12.00;96.20
2867;DHT22;1441;48.886;8.728;2024-03-23T03:42:29;12.00;96.50
2867;DHT22;1441;48.886;8.728;2024-03-23T03:44:55;12.00;96.70
2867;DHT22;1441;48.886;8.728;2024-03-23T03:47:20;12.10;96.60
2867;DHT22;1441;48.886;8.728;2024-03-23T03:49:47;12.10;96.80
2867;DHT22;1441;48.886;8.728;2024-03-23T03:52:13;12.10;97.20
2867;DHT22;1441;48.886;8.728;2024-03-23T03:54:38;12.10;97.20
2867;DHT22;1441;48.886;8.728;2024-03-23T03:57:04;12.10;97.30
2867;DHT22;1441;48.886;8.728;2024-03-23T03:59:29;12.10;98.30
2867;DHT22;1441;48.886;8.728;2024-03-23T04:01:55;12.00;99.90
2867;DHT22;1441;48.886;8.728;2024-03-23T04:04:21;11.90;99.90
2867;DHT22;1441;48.886;8.728;2024-03-23T04:06:47;11.90;99.90
2867;DHT22;1441;48.886;8.728;2024-03-23T04:09:13;11.80;99.90
2867;DHT22;1441;48.886;8.728;2024-03-23T04:11:38;11.70;99.90
2867;DHT22;1441;48.886;8.728;2024-03-23T04:14:04;11.60;99.90
2867;DHT22;1441;48.886;8.728;2024-03-23T04:16:33;11.50;99.90
2867;DHT22;1441;48.886;8.728;2024-03-23T04:18:59;11.50;99.90
2867;DHT22;1441;48.886;8.728;2024-03-23T04:21:24;11.40;99.90
2867;DHT22;1441;48.886;8.728;2024-03-23T04:23:50;11.40;99.90
2867;DHT22;1441;48.886;8.728;2024-03-23T04:26:16;11.40;99.90
2867;DHT22;1441;48.886;8.728;2024-03-23T04:28:41;11.30;99.90
2867;DHT22;1441;48.886;8.728;2024-03-23T04:31:08;11.30;99.90
2867;DHT22;1441;48.886;8.728;2024-03-23T04:33:34;11.30;99.90
2867;DHT22;1441;48.886;8.728;2024-03-23T04:35:59;11.30;99.90
2867;DHT22;1441;48.886;8.728;2024-03-23T04:38:25;11.30;99.90
2867;DHT22;1441;48.886;8.728;2024-03-23T04:40:57;11.20;99.90
2867;DHT22;1441;48.886;8.728;2024-03-23T04:43:23;11.10;99.90
2867;DHT22;1441;48.886;8.728;2024-03-23T04:45:49;11.10;99.90
2867;DHT22;1441;48.886;8.728;2024-03-23T04:48:15;11.00;99.90
2867;DHT22;1441;48.886;8.728;2024-03-23T04:50:40;10.90;99.90
2867;DHT22;1441;48.886;8.728;2024-03-23T04:53:07;10.90;99.90
2867;DHT22;1441;48.886;8.728;2024-03-23T04:55:32;10.90;99.90
2867;DHT22;1441;48.886;8.728;2024-03-23T04:57:58;10.80;99.90
2867;DHT22;1441;48.886;8.728;2024-03-23T05:00:24;10.80;99.90
2867;DHT22;1441;48.886;8.728;2024-03-23T05:02:50;10.70;99.90
2867;DHT22;1441;48.886;8.728;2024-03-23T05:05:16;10.70;99.90
2867;DHT22;1441;48.886;8.728;2024-03-23T05:07:41;10.70;99.90
2867;DHT22;1441;48.886;8.728;2024-03-23T05:10:08;10.70;99.90
2867;DHT22;1441;48.886;8.728;2024-03-23T05:12:39;10.60;99.90
2867;DHT22;1441;48.886;8.728;2024-03-23T05:15:07;10.60;99.90
2867;DHT22;1441;48.886;8.728;2024-03-23T05:17:33;10.50;99.90
2867;DHT22;1441;48.886;8.728;2024-03-23T05:19:59;10.50;99.90
2867;DHT22;1441;48.886;8.728;2024-03-23T05:22:24;10.40;99.90
2867;DHT22;1441;48.886;8.728;2024-03-23T05:24:50;10.30;99.90
2867;DHT22;1441;48.886;8.728;2024-03-23T05:27:15;10.20;99.90
2867;DHT22;1441;48.886;8.728;2024-03-23T05:29:41;10.10;99.90
2867;DHT22;1441;48.886;8.728;2024-03-23T05:32:07;10.10;99.90
2867;DHT22;1441;48.886;8.728;2024-03-23T05:34:32;10.10;99.90
2867;DHT22;1441;48.886;8.728;2024-03-23T05:36:58;10.00;99.90
2867;DHT22;1441;48.886;8.728;2024-03-23T05:39:24;9.90;99.90
2867;DHT22;1441;48.886;8.728;2024-03-23T05:41:50;9.90;99.90
2867;DHT22;1441;48.886;8.728;2024-03-23T05:44:15;9.90;99.90
2867;DHT22;1441;48.886;8.728;2024-03-23T05:46:41;9.90;99.90
2867;DHT22;1441;48.886;8.728;2024-03-23T05:49:08;9.80;99.90
2867;DHT22;1441;48.886;8.728;2024-03-23T05:51:33;9.70;99.90
2867;DHT22;1441;48.886;8.728;2024-03-23T05:53:59;9.70;99.90
2867;DHT22;1441;48.886;8.728;2024-03-23T05:56:24;9.60;99.90
2867;DHT22;1441;48.886;8.728;2024-03-23T05:58:51;9.60;99.90
2867;DHT22;1441;48.886;8.728;2024-03-23T06:01:17;9.40;99.90
2867;DHT22;1441;48.886;8.728;2024-03-23T06:03:43;9.40;99.90
2867;DHT22;1441;48.886;8.728;2024-03-23T06:06:10;9.30;99.90
2867;DHT22;1441;48.886;8.728;2024-03-23T06:08:37;9.30;99.90
2867;DHT22;1441;48.886;8.728;2024-03-23T06:11:03;9.30;99.90
2867;DHT22;1441;48.886;8.728;2024-03-23T06:13:29;9.30;99.90
2867;DHT22;1441;48.886;8.728;2024-03-23T06:15:56;9.30;99.90
2867;DHT22;1441;48.886;8.728;2024-03-23T06:18:21;9.20;99.90
2867;DHT22;1441;48.886;8.728;2024-03-23T06:20:47;9.10;99.90
2867;DHT22;1441;48.886;8.728;2024-03-23T06:23:12;9.00;99.90
2867;DHT22;1441;48.886;8.728;2024-03-23T06:25:38;9.00;99.90
2867;DHT22;1441;48.886;8.728;2024-03-23T06:28:04;9.00;99.90
2867;DHT22;1441;48.886;8.728;2024-03-23T06:30:30;9.00;99.90
2867;DHT22;1441;48.886;8.728;2024-03-23T06:32:57;9.00;99.90
2867;DHT22;1441;48.886;8.728;2024-03-23T06:35:23;8.90;99.90
2867;DHT22;1441;48.886;8.728;2024-03-23T06:37:48;8.90;99.90
2867;DHT22;1441;48.886;8.728;2024-03-23T06:40:14;8.90;99.90
2867;DHT22;1441;48.886;8.728;2024-03-23T06:42:40;8.90;99.90
2867;DHT22;1441;48.886;8.728;2024-03-23T06:45:06;8.90;99.90
2867;DHT22;1441;48.886;8.728;2024-03-23T06:47:32;8.80;99.90
2867;DHT22;1441;48.886;8.728;2024-03-23T06:49:59;8.80;99.90
2867;DHT22;1441;48.886;8.728;2024-03-23T06:52:27;8.80;99.90
2867;DHT22;1441;48.886;8.728;2024-03-23T06:54:53;8.80;99.90
2867;DHT22;1441;48.886;8.728;2024-03-23T06:57:19;8.70;99.90
2867;DHT22;1441;48.886;8.728;2024-03-23T06:59:44;8.70;99.90
2867;DHT22;1441;48.886;8.728;2024-03-23T07:02:10;8.70;99.90
2867;DHT22;1441;48.886;8.728;2024-03-23T07:04:36;8.70;99.90
2867;DHT22;1441;48.886;8.728;2024-03-23T07:07:02;8.70;99.90
2867;DHT22;1441;48.886;8.728;2024-03-23T07:09:28;8.60;99.90
2867;DHT22;1441;48.886;8.728;2024-03-23T07:11:55;8.70;99.90
2867;DHT22;1441;48.886;8.728;2024-03-23T07:14:22;8.70;99.90
2867;DHT22;1441;48.886;8.728;2024-03-23T07:16:48;8.70;99.90
2867;DHT22;1441;48.886;8.728;2024-03-23T07:19:15;8.70;99.90
2867;DHT22;1441;48.886;8.728;2024-03-23T07:21:45;8.70;99.90
2867;DHT22;1441;48.886;8.728;2024-03-23T07:24:11;8.70;99.90
2867;DHT22;1441;48.886;8.728;2024-03-23T07:26:36;8.70;99.90
2867;DHT22;1441;48.886;8.728;2024-03-23T07:29:04;8.80;99.90
2867;DHT22;1441;48.886;8.728;2024-03-23T07:31:29;8.70;99.90
2867;DHT22;1441;48.886;8.728;2024-03-23T07:33:55;8.70;99.90
2867;DHT22;1441;48.886;8.728;2024-03-23T07:36:20;8.70;99.90
2867;DHT22;1441;48.886;8.728;2024-03-23T07:38:46;8.70;99.90
2867;DHT22;1441;48.886;8.728;2024-03-23T07:41:18;8.60;99.90
2867;DHT22;1441;48.886;8.728;2024-03-23T07:43:44;8.50;99.90
2867;DHT22;1441;48.886;8.728;2024-03-23T07:46:10;8.40;99.90
2867;DHT22;1441;48.886;8.728;2024-03-23T07:48:37;8.40;99.90
2867;DHT22;1441;48.886;8.728;2024-03-23T07:51:11;8.40;99.90
2867;DHT22;1441;48.886;8.728;2024-03-23T07:53:37;8.50;99.90
2867;DHT22;1441;48.886;8.728;2024-03-23T07:56:05;8.50;99.90
2867;DHT22;1441;48.886;8.728;2024-03-23T07:58:31;8.40;99.90
2867;DHT22;1441;48.886;8.728;2024-03-23T08:01:04;8.50;99.90
2867;DHT22;1441;48.886;8.728;2024-03-23T08:03:30;8.50;99.90
2867;DHT22;1441;48.886;8.728;2024-03-23T08:05:55;8.40;99.90
2867;DHT22;1441;48.886;8.728;2024-03-23T08:08:21;8.50;99.90
2867;DHT22;1441;48.886;8.728;2024-03-23T08:10:50;8.60;99.90
2867;DHT22;1441;48.886;8.728;2024-03-23T08:13:16;8.50;99.90
2867;DHT22;1441;48.886;8.728;2024-03-23T08:15:42;8.60;99.90
2867;DHT22;1441;48.886;8.728;2024-03-23T08:18:08;8.80;99.90
2867;DHT22;1441;48.886;8.728;2024-03-23T08:20:34;9.80;99.90
2867;DHT22;1441;48.886;8.728;2024-03-23T08:22:59;12.10;94.10
2867;DHT22;1441;48.886;8.728;2024-03-23T08:25:25;13.00;89.80
2867;DHT22;1441;48.886;8.728;2024-03-23T08:27:51;14.20;85.90
2867;DHT22;1441;48.886;8.728;2024-03-23T08:30:17;13.80;85.50
2867;DHT22;1441;48.886;8.728;2024-03-23T08:32:44;13.90;85.90
2867;DHT22;1441;48.886;8.728;2024-03-23T08:35:09;13.80;84.50
2867;DHT22;1441;48.886;8.728;2024-03-23T08:37:35;12.60;87.00
2867;DHT22;1441;48.886;8.728;2024-03-23T08:40:00;11.80;89.80
2867;DHT22;1441;48.886;8.728;2024-03-23T08:42:26;11.40;90.60
2867;DHT22;1441;48.886;8.728;2024-03-23T08:44:51;11.30;91.50
2867;DHT22;1441;48.886;8.728;2024-03-23T08:47:17;12.90;86.30
2867;DHT22;1441;48.886;8.728;2024-03-23T08:49:44;14.80;81.00
2867;DHT22;1441;48.886;8.728;2024-03-23T08:52:09;15.70;76.20
2867;DHT22;1441;48.886;8.728;2024-03-23T08:54:35;16.30;74.40
2867;DHT22;1441;48.886;8.728;2024-03-23T08:57:00;16.50;73.70
2867;DHT22;1441;48.886;8.728;2024-03-23T08:59:26;16.70;72.20
2867;DHT22;1441;48.886;8.728;2024-03-23T09:01:52;16.80;73.00
2867;DHT22;1441;48.886;8.728;2024-03-23T09:04:18;16.70;69.60
2867;DHT22;1441;48.886;8.728;2024-03-23T09:06:43;16.40;69.70
2867;DHT22;1441;48.886;8.728;2024-03-23T09:09:09;16.30;70.40
2867;DHT22;1441;48.886;8.728;2024-03-23T09:11:34;16.50;69.20
2867;DHT22;1441;48.886;8.728;2024-03-23T09:14:00;16.10;70.10
2867;DHT22;1441;48.886;8.728;2024-03-23T09:16:26;16.30;70.10
2867;DHT22;1441;48.886;8.728;2024-03-23T09:18:52;15.60;70.00
2867;DHT22;1441;48.886;8.728;2024-03-23T09:21:17;14.10;73.60
2867;DHT22;1441;48.886;8.728;2024-03-23T09:23:44;13.80;75.70
2867;DHT22;1441;48.886;8.728;2024-03-23T09:26:10;14.10;72.90
2867;DHT22;1441;48.886;8.728;2024-03-23T09:28:35;14.20;72.40
2867;DHT22;1441;48.886;8.728;2024-03-23T09:31:08;15.20;71.10
2867;DHT22;1441;48.886;8.728;2024-03-23T09:33:34;14.90;71.50
2867;DHT22;1441;48.886;8.728;2024-03-23T09:36:04;15.40;71.50
2867;DHT22;1441;48.886;8.728;2024-03-23T09:38:29;15.50;70.90
2867;DHT22;1441;48.886;8.728;2024-03-23T09:40:56;16.10;70.90
2867;DHT22;1441;48.886;8.728;2024-03-23T09:43:22;16.00;69.30
2867;DHT22;1441;48.886;8.728;2024-03-23T09:45:49;16.10;70.20
2867;DHT22;1441;48.886;8.728;2024-03-23T09:48:15;16.20;67.90
2867;DHT22;1441;48.886;8.728;2024-03-23T09:50:45;15.80;68.30
2867;DHT22;1441;48.886;8.728;2024-03-23T09:53:12;14.70;70.70
2867;DHT22;1441;48.886;8.728;2024-03-23T09:55:39;14.50;72.30
2867;DHT22;1441;48.886;8.728;2024-03-23T09:58:05;14.60;71.60
2867;DHT22;1441;48.886;8.728;2024-03-23T10:00:32;15.00;70.70
2867;DHT22;1441;48.886;8.728;2024-03-23T10:02:59;14.60;71.30
2867;DHT22;1441;48.886;8.728;2024-03-23T10:05:28;14.50;72.00
2867;DHT22;1441;48.886;8.728;2024-03-23T10:07:53;13.50;73.70
2867;DHT22;1441;48.886;8.728;2024-03-23T10:10:19;12.70;76.60
2867;DHT22;1441;48.886;8.728;2024-03-23T10:12:50;12.10;78.20
2867;DHT22;1441;48.886;8.728;2024-03-23T10:15:20;11.60;80.90
2867;DHT22;1441;48.886;8.728;2024-03-23T10:17:46;10.80;85.60
2867;DHT22;1441;48.886;8.728;2024-03-23T10:20:12;10.10;89.70
2867;DHT22;1441;48.886;8.728;2024-03-23T10:22:38;9.70;91.10
2867;DHT22;1441;48.886;8.728;2024-03-23T10:25:08;9.60;90.90
2867;DHT22;1441;48.886;8.728;2024-03-23T10:27:34;9.30;92.80
2867;DHT22;1441;48.886;8.728;2024-03-23T10:30:11;8.90;96.00
2867;DHT22;1441;48.886;8.728;2024-03-23T10:32:38;8.30;98.60
2867;DHT22;1441;48.886;8.728;2024-03-23T10:35:20;8.00;99.50
2867;DHT22;1441;48.886;8.728;2024-03-23T10:37:48;7.90;99.90
2867;DHT22;1441;48.886;8.728;2024-03-23T10:40:17;7.90;99.90
2867;DHT22;1441;48.886;8.728;2024-03-23T10:42:44;7.90;99.90
2867;DHT22;1441;48.886;8.728;2024-03-23T10:45:10;8.10;99.90
2867;DHT22;1441;48.886;8.728;2024-03-23T10:47:36;8.10;99.90
2867;DHT22;1441;48.886;8.728;2024-03-23T10:50:05;8.20;99.90
2867;DHT22;1441;48.886;8.728;2024-03-23T10:52:33;8.10;99.90
2867;DHT22;1441;48.886;8.728;2024-03-23T10:55:01;8.20;99.90
2867;DHT22;1441;48.886;8.728;2024-03-23T10:57:40;8.30;99.90
2867;DHT22;1441;48.886;8.728;2024-03-23T11:00:07;8.70;99.90
2867;DHT22;1441;48.886;8.728;2024-03-23T11:02:33;9.40;99.90
2867;DHT22;1441;48.886;8.728;2024-03-23T11:04:59;9.60;98.10
2867;DHT22;1441;48.886;8.728;2024-03-23T11:07:28;9.80;99.00
2867;DHT22;1441;48.886;8.728;2024-03-23T11:09:54;10.00;98.20
2867;DHT22;1441;48.886;8.728;2024-03-23T11:14:52;10.00;95.40
2867;DHT22;1441;48.886;8.728;2024-03-23T11:17:20;10.00;94.70
2867;DHT22;1441;48.886;8.728;2024-03-23T11:20:05;10.00;94.30
2867;DHT22;1441;48.886;8.728;2024-03-23T11:25:21;10.00;94.10
2867;DHT22;1441;48.886;8.728;2024-03-23T11:30:24;10.10;92.00
2867;DHT22;1441;48.886;8.728;2024-03-23T11:32:55;10.00;91.10
2867;DHT22;1441;48.886;8.728;2024-03-23T11:35:40;10.20;91.70
2867;DHT22;1441;48.886;8.728;2024-03-23T11:38:14;10.40;87.80
2867;DHT22;1441;48.886;8.728;2024-03-23T11:40:44;10.60;86.10
2867;DHT22;1441;48.886;8.728;2024-03-23T11:43:13;10.60;85.20
2867;DHT22;1441;48.886;8.728;2024-03-23T11:45:48;10.50;85.60
2867;DHT22;1441;48.886;8.728;2024-03-23T11:48:16;10.30;85.60
2867;DHT22;1441;48.886;8.728;2024-03-23T11:50:47;10.30;86.00
2867;DHT22;1441;48.886;8.728;2024-03-23T11:55:58;10.70;86.90
2867;DHT22;1441;48.886;8.728;2024-03-23T11:58:25;10.90;85.80
2867;DHT22;1441;48.886;8.728;2024-03-23T12:01:01;10.80;85.30
2867;DHT22;1441;48.886;8.728;2024-03-23T12:03:29;10.70;85.10
2867;DHT22;1441;48.886;8.728;2024-03-23T12:05:56;10.90;87.10
2867;DHT22;1441;48.886;8.728;2024-03-23T12:08:29;10.90;85.80
2867;DHT22;1441;48.886;8.728;2024-03-23T12:11:12;11.20;85.00
2867;DHT22;1441;48.886;8.728;2024-03-23T12:13:39;11.50;84.10
2867;DHT22;1441;48.886;8.728;2024-03-23T12:16:18;11.30;84.10
2867;DHT22;1441;48.886;8.728;2024-03-23T12:18:50;11.30;84.90
2867;DHT22;1441;48.886;8.728;2024-03-23T12:21:18;11.40;83.80
2867;DHT22;1441;48.886;8.728;2024-03-23T12:23:44;11.60;84.20
2867;DHT22;1441;48.886;8.728;2024-03-23T12:26:12;11.50;84.20
2867;DHT22;1441;48.886;8.728;2024-03-23T12:28:38;11.70;85.20
2867;DHT22;1441;48.886;8.728;2024-03-23T12:31:04;11.60;82.70
2867;DHT22;1441;48.886;8.728;2024-03-23T12:33:29;11.50;83.40
2867;DHT22;1441;48.886;8.728;2024-03-23T12:35:55;11.40;82.60
2867;DHT22;1441;48.886;8.728;2024-03-23T12:38:20;11.30;84.80
2867;DHT22;1441;48.886;8.728;2024-03-23T12:40:49;11.40;84.30
2867;DHT22;1441;48.886;8.728;2024-03-23T12:43:15;11.60;84.20
2867;DHT22;1441;48.886;8.728;2024-03-23T12:45:45;11.60;82.20
2867;DHT22;1441;48.886;8.728;2024-03-23T12:48:11;11.70;80.10
2867;DHT22;1441;48.886;8.728;2024-03-23T12:50:36;11.80;80.70
2867;DHT22;1441;48.886;8.728;2024-03-23T12:53:03;12.00;81.00
2867;DHT22;1441;48.886;8.728;2024-03-23T12:55:28;11.90;79.90
2867;DHT22;1441;48.886;8.728;2024-03-23T12:57:54;12.10;79.40
2867;DHT22;1441;48.886;8.728;2024-03-23T13:00:20;12.30;80.80
2867;DHT22;1441;48.886;8.728;2024-03-23T13:02:45;12.30;78.60
2867;DHT22;1441;48.886;8.728;2024-03-23T13:05:11;12.30;77.00
2867;DHT22;1441;48.886;8.728;2024-03-23T13:07:36;12.20;76.70
2867;DHT22;1441;48.886;8.728;2024-03-23T13:10:04;12.10;76.50
2867;DHT22;1441;48.886;8.728;2024-03-23T13:12:30;12.20;78.10
2867;DHT22;1441;48.886;8.728;2024-03-23T13:14:56;12.50;77.80
2867;DHT22;1441;48.886;8.728;2024-03-23T13:17:21;12.50;76.40
2867;DHT22;1441;48.886;8.728;2024-03-23T13:19:47;12.00;77.20
2867;DHT22;1441;48.886;8.728;2024-03-23T13:22:13;11.60;80.60
2867;DHT22;1441;48.886;8.728;2024-03-23T13:24:38;10.90;83.90
2867;DHT22;1441;48.886;8.728;2024-03-23T13:27:04;10.50;86.80
2867;DHT22;1441;48.886;8.728;2024-03-23T13:29:33;9.80;88.10
2867;DHT22;1441;48.886;8.728;2024-03-23T13:32:01;9.20;90.30
2867;DHT22;1441;48.886;8.728;2024-03-23T13:34:26;8.70;91.70
2867;DHT22;1441;48.886;8.728;2024-03-23T13:36:52;8.40;94.10
2867;DHT22;1441;48.886;8.728;2024-03-23T13:39:17;8.10;95.80
2867;DHT22;1441;48.886;8.728;2024-03-23T13:41:45;7.90;98.20
2867;DHT22;1441;48.886;8.728;2024-03-23T13:44:12;8.10;98.80
2867;DHT22;1441;48.886;8.728;2024-03-23T13:46:42;8.20;99.10
2867;DHT22;1441;48.886;8.728;2024-03-23T13:49:27;8.10;98.30
2867;DHT22;1441;48.886;8.728;2024-03-23T13:51:54;8.00;99.10
2867;DHT22;1441;48.886;8.728;2024-03-23T13:54:20;7.90;99.20
2867;DHT22;1441;48.886;8.728;2024-03-23T13:56:48;7.70;99.50
2867;DHT22;1441;48.886;8.728;2024-03-23T13:59:13;7.70;99.10
2867;DHT22;1441;48.886;8.728;2024-03-23T14:01:39;7.80;99.90
2867;DHT22;1441;48.886;8.728;2024-03-23T14:04:05;7.80;99.70
2867;DHT22;1441;48.886;8.728;2024-03-23T14:06:31;7.90;99.40
2867;DHT22;1441;48.886;8.728;2024-03-23T14:08:57;8.20;96.70
2867;DHT22;1441;48.886;8.728;2024-03-23T14:11:22;8.70;97.30
2867;DHT22;1441;48.886;8.728;2024-03-23T14:13:48;9.10;94.40
2867;DHT22;1441;48.886;8.728;2024-03-23T14:16:14;9.50;94.40
2867;DHT22;1441;48.886;8.728;2024-03-23T14:18:39;9.70;92.00
2867;DHT22;1441;48.886;8.728;2024-03-23T14:21:05;9.80;91.00
2867;DHT22;1441;48.886;8.728;2024-03-23T14:23:31;9.80;88.80
2867;DHT22;1441;48.886;8.728;2024-03-23T14:25:59;9.90;87.50
2867;DHT22;1441;48.886;8.728;2024-03-23T14:28:25;9.80;86.90
2867;DHT22;1441;48.886;8.728;2024-03-23T14:30:51;9.70;86.70
2867;DHT22;1441;48.886;8.728;2024-03-23T14:33:18;9.30;86.10
2867;DHT22;1441;48.886;8.728;2024-03-23T14:35:53;9.10;88.30
2867;DHT22;1441;48.886;8.728;2024-03-23T14:38:22;9.00;87.50
2867;DHT22;1441;48.886;8.728;2024-03-23T14:40:48;8.90;89.40
2867;DHT22;1441;48.886;8.728;2024-03-23T14:43:14;8.60;89.70
2867;DHT22;1441;48.886;8.728;2024-03-23T14:46:14;8.20;93.90
2867;DHT22;1441;48.886;8.728;2024-03-23T14:48:41;7.90;96.30
2867;DHT22;1441;48.886;8.728;2024-03-23T14:51:08;7.80;98.20
2867;DHT22;1441;48.886;8.728;2024-03-23T14:53:35;7.70;99.60
2867;DHT22;1441;48.886;8.728;2024-03-23T14:56:02;7.90;99.90
2867;DHT22;1441;48.886;8.728;2024-03-23T14:58:28;8.10;99.30
2867;DHT22;1441;48.886;8.728;2024-03-23T15:01:00;8.30;98.10
2867;DHT22;1441;48.886;8.728;2024-03-23T15:03:26;8.40;97.20
2867;DHT22;1441;48.886;8.728;2024-03-23T15:05:56;8.50;96.00
2867;DHT22;1441;48.886;8.728;2024-03-23T15:08:22;8.50;94.80
2867;DHT22;1441;48.886;8.728;2024-03-23T15:10:48;8.60;93.40
2867;DHT22;1441;48.886;8.728;2024-03-23T15:13:14;8.50;93.20
2867;DHT22;1441;48.886;8.728;2024-03-23T15:15:43;8.60;92.90
2867;DHT22;1441;48.886;8.728;2024-03-23T15:18:14;8.70;92.90
2867;DHT22;1441;48.886;8.728;2024-03-23T15:20:57;8.70;93.00
2867;DHT22;1441;48.886;8.728;2024-03-23T15:23:23;8.70;92.60
2867;DHT22;1441;48.886;8.728;2024-03-23T15:25:59;8.80;93.00
2867;DHT22;1441;48.886;8.728;2024-03-23T15:28:26;9.00;92.90
2867;DHT22;1441;48.886;8.728;2024-03-23T15:31:06;9.00;92.60
2867;DHT22;1441;48.886;8.728;2024-03-23T15:33:32;9.10;92.60
2867;DHT22;1441;48.886;8.728;2024-03-23T15:36:04;9.10;91.90
2867;DHT22;1441;48.886;8.728;2024-03-23T15:38:32;9.20;91.70
2867;DHT22;1441;48.886;8.728;2024-03-23T15:40:58;9.30;90.50
2867;DHT22;1441;48.886;8.728;2024-03-23T15:43:24;9.40;90.10
2867;DHT22;1441;48.886;8.728;2024-03-23T15:48:21;9.20;90.10
2867;DHT22;1441;48.886;8.728;2024-03-23T15:50:54;9.00;91.40
2867;DHT22;1441;48.886;8.728;2024-03-23T15:53:21;8.70;91.00
2867;DHT22;1441;48.886;8.728;2024-03-23T15:56:03;8.60;92.00
2867;DHT22;1441;48.886;8.728;2024-03-23T15:58:30;8.50;92.00
2867;DHT22;1441;48.886;8.728;2024-03-23T16:01:03;8.40;92.10
2867;DHT22;1441;48.886;8.728;2024-03-23T16:03:29;8.30;92.90
2867;DHT22;1441;48.886;8.728;2024-03-23T16:06:00;8.30;92.70
2867;DHT22;1441;48.886;8.728;2024-03-23T16:08:26;8.20;93.00
2867;DHT22;1441;48.886;8.728;2024-03-23T16:10:52;8.20;93.50
2867;DHT22;1441;48.886;8.728;2024-03-23T16:13:17;8.30;94.80
2867;DHT22;1441;48.886;8.728;2024-03-23T16:15:44;8.30;96.00
2867;DHT22;1441;48.886;8.728;2024-03-23T16:18:10;8.20;97.40
2867;DHT22;1441;48.886;8.728;2024-03-23T16:20:36;8.20;97.60
2867;DHT22;1441;48.886;8.728;2024-03-23T16:23:02;7.80;96.30
2867;DHT22;1441;48.886;8.728;2024-03-23T16:25:28;7.70;97.10
2867;DHT22;1441;48.886;8.728;2024-03-23T16:27:54;7.60;96.20
2867;DHT22;1441;48.886;8.728;2024-03-23T16:30:20;7.60;95.40
2867;DHT22;1441;48.886;8.728;2024-03-23T16:32:49;7.60;95.70
2867;DHT22;1441;48.886;8.728;2024-03-23T16:35:15;7.50;96.00
2867;DHT22;1441;48.886;8.728;2024-03-23T16:37:41;7.40;97.20
2867;DHT22;1441;48.886;8.728;2024-03-23T16:40:07;7.40;98.10
2867;DHT22;1441;48.886;8.728;2024-03-23T16:42:37;7.30;98.30
2867;DHT22;1441;48.886;8.728;2024-03-23T16:45:03;7.10;98.80
2867;DHT22;1441;48.886;8.728;2024-03-23T16:47:29;7.10;97.80
2867;DHT22;1441;48.886;8.728;2024-03-23T16:49:55;7.20;98.40
2867;DHT22;1441;48.886;8.728;2024-03-23T16:52:20;7.10;98.20
2867;DHT22;1441;48.886;8.728;2024-03-23T16:54:46;7.10;98.40
2867;DHT22;1441;48.886;8.728;2024-03-23T16:57:13;7.10;97.70
2867;DHT22;1441;48.886;8.728;2024-03-23T16:59:39;6.90;97.70
2867;DHT22;1441;48.886;8.728;2024-03-23T17:02:04;6.90;98.80
2867;DHT22;1441;48.886;8.728;2024-03-23T17:04:30;6.70;99.20
2867;DHT22;1441;48.886;8.728;2024-03-23T17:06:56;6.60;99.20
2867;DHT22;1441;48.886;8.728;2024-03-23T17:09:21;6.60;99.20
2867;DHT22;1441;48.886;8.728;2024-03-23T17:11:47;6.60;99.60
2867;DHT22;1441;48.886;8.728;2024-03-23T17:14:14;6.50;99.10